This is the latest recevied weather packets stored in our database for station/object W0DP-11. If no packets are shown the sender has not sent any weather packets the latest 10 day(s).
| Time | Temp. | Humidity | Pressure | Rain* | Wind** | Luminosity | Snow |
|---|---|---|---|---|---|---|---|
| 1777547416 | -1.67° C | 95% | 1016.5 hPa | 0 mm | - | - | - |
| 1777544416 | -1.67° C | 96% | 1016.6 hPa | 0 mm | - | - | - |
| 1777540816 | -1.67° C | 95% | 1016.9 hPa | 0 mm | - | - | - |
| 1777540216 | -1.67° C | 96% | 1016.8 hPa | 0 mm | - | - | - |
| 1777538438 | -1.67° C | 95% | 1016.7 hPa | 0 mm | - | - | - |
| 1777537817 | -1.67° C | 95% | 1016.8 hPa | 0 mm | - | - | - |
| 1777534217 | -1.11° C | 95% | 1016.7 hPa | 0 mm | - | - | - |
| 1777532417 | -1.11° C | 94% | 1016.6 hPa | 0 mm | - | - | - |
| 1777529437 | -0.56° C | 93% | 1016.7 hPa | 0 mm | - | - | - |
| 1777526417 | 0° C | 93% | 1016.7 hPa | 0 mm | - | - | - |
| 1777522817 | 0.56° C | 91% | 1016.6 hPa | 0 mm | - | - | - |
| 1777522217 | 0.56° C | 92% | 1016.7 hPa | 0 mm | - | - | - |
| 1777517417 | 0.56° C | 92% | 1016.5 hPa | 0 mm | - | - | - |
| 1777516217 | 0.56° C | 91% | 1016.4 hPa | 0 mm | - | - | - |
| 1777513817 | 0.56° C | 91% | 1016.1 hPa | 0 mm | - | - | - |
| 1777511417 | 0.56° C | 91% | 1015.8 hPa | 0 mm | - | - | - |
| 1777510817 | 0.56° C | 91% | 1015.7 hPa | 0 mm | - | - | - |
| 1777510217 | 1.11° C | 91% | 1015.9 hPa | 0 mm | - | - | - |
| 1777509017 | 1.11° C | 90% | 1015.8 hPa | 0 mm | - | - | - |
| 1777506617 | 1.67° C | 88% | 1015.7 hPa | 0 mm | - | - | - |
| 1777506037 | 1.67° C | 88% | 1015.7 hPa | 0 mm | - | - | - |
| 1777500036 | 2.22° C | 84% | 1015.7 hPa | 0 mm | - | - | - |
| 1777494637 | 3.89° C | 64% | 1015.7 hPa | 0 mm | - | - | - |
| 1777488616 | 3.33° C | 68% | 1016.3 hPa | 0 mm | - | - | - |
| 1777487416 | 3.33° C | 68% | 1016.3 hPa | 0 mm | - | - | - |
* Rain latest hour (hover to see other rain measurements)
** Current wind speed in m/s (hover to see current wind gust speed)